Time;durP1;ratioP1;P1;durP2;ratioP2;P2;SDS_P1;SDS_P2;PMS_P1;PMS_P2;Temp;Humidity;BMP_temperature;BMP_pressure;BME280_temperature;BME280_humidity;BME280_pressure;Samples;Min_cycle;Max_cycle;Signal;HPM_P1;HPM_P2
2021/07/02 00:01:24;;;;;;;11.27;9.07;;;15.80;99.90;;;;;;5056412;28;20971;-78
2021/07/02 00:03:51;;;;;;;13.23;9.07;;;15.80;99.90;;;;;;5056381;28;20516;-79
2021/07/02 00:06:18;;;;;;;12.70;9.00;;;15.80;99.90;;;;;;5056799;28;20473;-79
2021/07/02 00:08:45;;;;;;;11.50;9.23;;;15.80;99.90;;;;;;5056760;28;20480;-80
2021/07/02 00:11:11;;;;;;;14.03;10.40;;;15.80;99.90;;;;;;5058933;28;20449;-79
2021/07/02 00:13:38;;;;;;;17.67;10.47;;;15.80;99.90;;;;;;5057083;28;20449;-77
2021/07/02 00:16:05;;;;;;;18.57;11.17;;;15.80;99.90;;;;;;5056888;28;20469;-77
2021/07/02 00:18:33;;;;;;;17.67;10.03;;;15.80;99.90;;;;;;5067427;28;20448;-77
2021/07/02 00:21:00;;;;;;;15.57;11.90;;;15.80;99.90;;;;;;5072491;28;20463;-77
2021/07/02 00:23:27;;;;;;;17.60;11.53;;;15.80;99.90;;;;;;5072164;28;20481;-77
2021/07/02 00:25:53;;;;;;;13.20;10.00;;;15.70;99.90;;;;;;5066736;28;20472;-79
2021/07/02 00:28:20;;;;;;;17.87;12.70;;;15.80;99.90;;;;;;5067578;28;20453;-79
2021/07/02 00:30:46;;;;;;;16.17;11.80;;;15.80;99.90;;;;;;5067348;28;20453;-79
2021/07/02 00:33:13;;;;;;;14.20;11.77;;;15.80;99.90;;;;;;5063117;28;20441;-78
2021/07/02 00:35:42;;;;;;;21.30;13.33;;;15.80;99.90;;;;;;5060418;28;20838;-78
2021/07/02 00:38:09;;;;;;;22.77;14.60;;;15.80;99.90;;;;;;5056707;28;20461;-78
2021/07/02 00:40:36;;;;;;;22.70;13.40;;;15.90;99.90;;;;;;5056130;28;20499;-79
2021/07/02 00:43:03;;;;;;;24.53;14.40;;;15.80;99.90;;;;;;5055738;28;20481;-78
2021/07/02 00:45:29;;;;;;;21.80;13.73;;;15.80;99.90;;;;;;5056341;28;20784;-78
2021/07/02 00:47:56;;;;;;;26.97;14.50;;;15.80;99.90;;;;;;5055277;28;20465;-78
2021/07/02 00:50:23;;;;;;;27.20;16.43;;;15.80;99.90;;;;;;5057868;28;20575;-80
2021/07/02 00:52:51;;;;;;;26.23;16.57;;;15.80;99.90;;;;;;5056848;28;20865;-78
2021/07/02 00:55:18;;;;;;;26.83;15.67;;;15.80;99.90;;;;;;5057781;28;20990;-80
2021/07/02 00:57:46;;;;;;;26.57;14.97;;;15.80;99.90;;;;;;5056410;28;20557;-79
2021/07/02 01:00:13;;;;;;;24.73;14.40;;;15.90;99.90;;;;;;5056734;28;21001;-79
2021/07/02 01:02:41;;;;;;;28.00;15.03;;;15.90;99.90;;;;;;5063522;28;20449;-77
2021/07/02 01:05:09;;;;;;;26.13;15.00;;;15.90;99.90;;;;;;5063482;28;20448;-77
2021/07/02 01:07:35;;;;;;;31.70;17.47;;;15.90;99.90;;;;;;5067795;28;20462;-77
2021/07/02 01:10:04;;;;;;;25.80;15.00;;;15.80;99.90;;;;;;5068001;28;20452;-79
2021/07/02 01:12:31;;;;;;;30.53;16.43;;;15.90;99.90;;;;;;5064771;28;20445;-78
2021/07/02 01:14:57;;;;;;;25.57;14.70;;;15.90;99.90;;;;;;5068789;28;20434;-78
2021/07/02 01:17:25;;;;;;;29.97;17.37;;;15.90;99.90;;;;;;5067632;28;20488;-79
2021/07/02 01:19:53;;;;;;;27.20;15.17;;;15.90;99.90;;;;;;5063679;28;20448;-79
2021/07/02 01:22:25;;;;;;;30.03;15.87;;;15.90;99.90;;;;;;5066934;28;20869;-79
2021/07/02 01:24:51;;;;;;;33.20;16.10;;;15.90;99.90;;;;;;5072214;28;20491;-79
2021/07/02 01:27:19;;;;;;;30.90;17.10;;;15.90;99.90;;;;;;5073448;28;20469;-78
2021/07/02 01:29:47;;;;;;;33.77;18.37;;;16.00;99.90;;;;;;5065060;28;20437;-78
2021/07/02 01:32:14;;;;;;;24.53;15.60;;;15.90;99.90;;;;;;5060725;28;20453;-79
2021/07/02 01:34:41;;;;;;;31.23;17.13;;;16.00;99.90;;;;;;5059508;28;20465;-78
2021/07/02 01:37:08;;;;;;;27.67;16.37;;;15.90;99.90;;;;;;5059175;28;20469;-79
2021/07/02 01:39:37;;;;;;;40.93;19.13;;;15.90;99.90;;;;;;5060039;28;20445;-79
2021/07/02 01:42:05;;;;;;;38.53;18.77;;;16.00;99.90;;;;;;5059384;28;20958;-79
2021/07/02 01:44:32;;;;;;;39.37;19.30;;;15.90;99.90;;;;;;5060089;28;20481;-77
2021/07/02 01:46:59;;;;;;;36.43;19.23;;;15.90;99.90;;;;;;5057681;28;20458;-78
2021/07/02 01:49:25;;;;;;;37.77;20.00;;;15.90;99.90;;;;;;5061373;28;20437;-78
2021/07/02 01:51:52;;;;;;;35.73;18.03;;;15.90;99.90;;;;;;5074331;28;20445;-78
2021/07/02 01:54:19;;;;;;;37.77;20.20;;;15.90;99.90;;;;;;5070810;28;20421;-78
2021/07/02 01:56:48;;;;;;;33.80;19.20;;;15.90;99.90;;;;;;5063781;28;20469;-79
2021/07/02 01:59:15;;;;;;;35.10;18.73;;;16.00;99.90;;;;;;5058667;28;20503;-78
2021/07/02 02:01:42;;;;;;;38.43;20.70;;;15.90;99.90;;;;;;5060883;28;20495;-78
2021/07/02 02:04:09;;;;;;;35.43;19.57;;;16.00;99.90;;;;;;5064400;28;20534;-79
2021/07/02 02:06:36;;;;;;;33.40;19.07;;;16.00;99.90;;;;;;5065498;28;20466;-78
2021/07/02 02:09:03;;;;;;;42.37;19.83;;;16.00;99.90;;;;;;5063527;28;20476;-79
2021/07/02 02:11:29;;;;;;;41.67;21.80;;;16.00;99.90;;;;;;5062540;28;20476;-79
2021/07/02 02:13:58;;;;;;;38.03;20.80;;;16.00;99.90;;;;;;5062723;28;20445;-79
2021/07/02 02:16:24;;;;;;;41.67;21.50;;;16.00;99.90;;;;;;5062708;28;20469;-78
2021/07/02 02:18:51;;;;;;;43.60;23.60;;;16.00;99.90;;;;;;5062101;28;20449;-79
2021/07/02 02:21:18;;;;;;;48.77;21.83;;;16.00;99.90;;;;;;5068227;28;20454;-77
2021/07/02 02:23:45;;;;;;;50.13;24.30;;;16.10;99.90;;;;;;5067865;28;20505;-77
2021/07/02 02:26:11;;;;;;;40.47;22.10;;;16.10;99.90;;;;;;5070388;28;20465;-77
2021/07/02 02:28:38;;;;;;;44.03;24.03;;;16.10;99.90;;;;;;5073958;28;20468;-78
2021/07/02 02:31:06;;;;;;;44.50;22.67;;;16.10;99.90;;;;;;5070883;28;20446;-78
2021/07/02 02:33:32;;;;;;;45.20;23.07;;;16.20;99.90;;;;;;5061350;28;20484;-79
2021/07/02 02:35:59;;;;;;;40.60;23.70;;;16.50;99.90;;;;;;5065183;28;20500;-77
2021/07/02 02:38:25;;;;;;;43.47;21.90;;;16.30;99.90;;;;;;5068581;28;20438;-79
2021/07/02 02:40:52;;;;;;;37.17;22.20;;;16.20;99.90;;;;;;5067793;28;20452;-77
2021/07/02 02:43:18;;;;;;;42.00;22.50;;;16.20;99.90;;;;;;5071837;28;20508;-77
2021/07/02 02:45:45;;;;;;;36.27;22.30;;;16.30;99.90;;;;;;5071309;28;20450;-78
2021/07/02 02:48:13;;;;;;;39.30;22.90;;;16.30;99.90;;;;;;5070735;28;20452;-79
2021/07/02 02:50:39;;;;;;;38.90;22.10;;;16.30;99.90;;;;;;5060413;28;20445;-78
2021/07/02 02:53:06;;;;;;;34.53;20.70;;;16.40;99.90;;;;;;5059384;28;20445;-78
2021/07/02 02:55:33;;;;;;;39.90;22.67;;;16.40;99.90;;;;;;5067783;28;20445;-77
2021/07/02 02:57:59;;;;;;;36.10;20.73;;;16.40;99.90;;;;;;5081528;22;20528;-77
2021/07/02 03:00:26;;;;;;;32.97;19.90;;;16.50;99.90;;;;;;5055964;28;20433;-77
2021/07/02 03:02:52;;;;;;;34.50;21.53;;;16.50;99.90;;;;;;5056908;28;20448;-77
2021/07/02 03:05:20;;;;;;;28.57;20.60;;;16.50;99.90;;;;;;5055077;28;20524;-77
2021/07/02 03:07:47;;;;;;;35.57;22.07;;;16.50;99.90;;;;;;5054428;28;20513;-77
2021/07/02 03:10:13;;;;;;;27.57;19.10;;;16.50;99.90;;;;;;5054231;28;20456;-77
2021/07/02 03:12:40;;;;;;;30.13;20.00;;;16.60;99.90;;;;;;5054222;28;20872;-76
2021/07/02 03:15:07;;;;;;;28.00;19.30;;;16.60;99.90;;;;;;5054277;28;21002;-77
2021/07/02 03:17:34;;;;;;;27.50;20.60;;;16.60;99.90;;;;;;5061483;28;20535;-77
2021/07/02 03:20:00;;;;;;;29.17;18.47;;;16.60;99.90;;;;;;5062088;28;20456;-77
2021/07/02 03:22:28;;;;;;;23.50;18.00;;;16.60;99.90;;;;;;5063147;28;20461;-77
2021/07/02 03:24:55;;;;;;;30.70;21.10;;;16.60;99.90;;;;;;5061799;28;20481;-77
2021/07/02 03:27:21;;;;;;;28.60;18.30;;;16.60;99.90;;;;;;5058337;28;20465;-77
2021/07/02 03:29:48;;;;;;;20.97;18.23;;;16.60;99.90;;;;;;5061016;28;20445;-77
2021/07/02 03:32:15;;;;;;;35.20;22.57;;;16.60;99.90;;;;;;5061431;28;20449;-77
2021/07/02 03:34:44;;;;;;;23.90;17.60;;;16.60;99.90;;;;;;5060610;28;20476;-77
2021/07/02 03:37:11;;;;;;;24.07;17.67;;;16.60;99.90;;;;;;5061605;28;20470;-77
2021/07/02 03:39:38;;;;;;;29.67;21.30;;;16.60;99.90;;;;;;5061955;28;20461;-77
2021/07/02 03:42:05;;;;;;;22.43;17.73;;;16.60;99.90;;;;;;5061664;28;20450;-77
2021/07/02 03:44:33;;;;;;;23.50;18.50;;;16.60;99.90;;;;;;5060159;28;20486;-77
2021/07/02 03:47:00;;;;;;;26.03;18.83;;;16.60;99.90;;;;;;5060681;28;20462;-77
2021/07/02 03:49:27;;;;;;;21.17;18.70;;;16.70;99.90;;;;;;5061090;28;20952;-77
2021/07/02 03:51:53;;;;;;;22.50;17.07;;;16.70;99.90;;;;;;5060035;28;20792;-78
2021/07/02 03:54:20;;;;;;;18.47;16.33;;;16.70;99.90;;;;;;5058594;28;20615;-77
2021/07/02 03:59:32;;;;;;;21.80;15.40;;;16.70;99.90;;;;;;5061165;28;20473;-77
2021/07/02 04:01:59;;;;;;;24.50;17.80;;;16.60;99.90;;;;;;5061966;28;20457;-77
2021/07/02 04:04:25;;;;;;;21.60;16.80;;;16.70;99.90;;;;;;5061765;28;21031;-77
2021/07/02 04:06:52;;;;;;;23.37;15.57;;;16.70;99.90;;;;;;5061433;28;20469;-77
2021/07/02 04:09:19;;;;;;;19.60;14.77;;;16.70;99.90;;;;;;5060429;28;20576;-77
2021/07/02 04:11:45;;;;;;;19.50;14.93;;;16.70;99.90;;;;;;5062214;28;20445;-77
2021/07/02 04:14:13;;;;;;;18.27;14.40;;;16.70;99.90;;;;;;5060257;28;20446;-78
2021/07/02 04:16:39;;;;;;;17.50;15.10;;;16.70;99.90;;;;;;5060598;28;20473;-78
2021/07/02 04:19:06;;;;;;;24.73;14.80;;;16.80;99.90;;;;;;5061112;28;20441;-77
2021/07/02 04:21:33;;;;;;;17.00;14.23;;;16.70;99.90;;;;;;5060879;28;20449;-77
2021/07/02 04:24:00;;;;;;;16.83;13.80;;;16.70;99.90;;;;;;5059601;28;20512;-78
2021/07/02 04:26:26;;;;;;;20.17;13.80;;;16.70;99.90;;;;;;5056017;28;20855;-78
2021/07/02 04:28:53;;;;;;;15.57;12.83;;;16.80;99.90;;;;;;5054528;28;20504;-78
2021/07/02 04:31:21;;;;;;;18.73;14.47;;;16.80;99.90;;;;;;5053727;28;20911;-78
2021/07/02 04:33:48;;;;;;;15.80;13.20;;;16.80;99.90;;;;;;5053916;28;20594;-76
2021/07/02 04:36:15;;;;;;;18.87;12.77;;;16.80;99.90;;;;;;5052857;28;20441;-77
2021/07/02 04:38:42;;;;;;;21.23;15.10;;;16.80;99.90;;;;;;5053080;28;20445;-77
2021/07/02 04:41:08;;;;;;;18.30;14.50;;;16.90;99.90;;;;;;5052963;28;20503;-78
2021/07/02 04:43:35;;;;;;;21.83;17.27;;;16.90;99.90;;;;;;5053734;28;20480;-77
2021/07/02 04:46:02;;;;;;;22.43;16.07;;;16.90;99.90;;;;;;5053635;28;20792;-77
2021/07/02 04:48:30;;;;;;;17.20;15.30;;;17.00;99.90;;;;;;5053318;28;20473;-77
2021/07/02 04:50:56;;;;;;;19.70;16.50;;;16.80;99.90;;;;;;5053331;28;20449;-77
2021/07/02 04:53:23;;;;;;;22.53;16.43;;;16.90;99.90;;;;;;5053387;28;20445;-77
2021/07/02 04:55:49;;;;;;;18.37;16.27;;;16.90;99.90;;;;;;5053346;28;20967;-77
2021/07/02 04:58:18;;;;;;;17.40;15.20;;;16.90;99.90;;;;;;5057044;28;20519;-77
2021/07/02 05:00:44;;;;;;;22.13;16.50;;;16.90;99.90;;;;;;5057634;28;20449;-79
2021/07/02 05:03:11;;;;;;;22.33;16.10;;;16.90;99.90;;;;;;5057437;28;20876;-77
2021/07/02 05:05:39;;;;;;;19.60;16.60;;;16.90;99.90;;;;;;5062212;28;20536;-77
2021/07/02 05:08:06;;;;;;;21.10;14.87;;;17.00;99.90;;;;;;5062747;28;20518;-77
2021/07/02 05:10:33;;;;;;;21.17;16.80;;;16.90;99.90;;;;;;5058057;28;20454;-78
2021/07/02 05:13:02;;;;;;;18.53;15.20;;;17.10;99.90;;;;;;5057527;28;20948;-78
2021/07/02 05:15:28;;;;;;;18.83;16.03;;;17.10;99.90;;;;;;5057457;28;20860;-78
2021/07/02 05:17:55;;;;;;;17.90;15.40;;;17.10;99.90;;;;;;5057347;28;20572;-78
2021/07/02 05:20:22;;;;;;;17.67;13.60;;;17.10;99.90;;;;;;5057381;28;20492;-78
2021/07/02 05:22:50;;;;;;;15.90;13.03;;;17.10;99.90;;;;;;5057882;28;20503;-78
2021/07/02 05:25:18;;;;;;;13.70;12.23;;;17.00;99.90;;;;;;5056923;28;20566;-78
2021/07/02 05:27:45;;;;;;;15.53;12.27;;;17.20;99.90;;;;;;5057921;28;20468;-77
2021/07/02 05:30:13;;;;;;;16.47;13.20;;;17.00;99.90;;;;;;5057198;28;20445;-78
2021/07/02 05:32:39;;;;;;;17.40;12.37;;;17.10;99.90;;;;;;5056695;28;20453;-77
2021/07/02 05:35:08;;;;;;;20.40;12.10;;;17.20;99.90;;;;;;5057046;28;20467;-78
2021/07/02 05:37:34;;;;;;;12.40;10.73;;;17.10;99.90;;;;;;5056618;28;20470;-78
2021/07/02 05:40:03;;;;;;;18.00;12.60;;;17.20;99.90;;;;;;5056524;28;20477;-77
2021/07/02 05:42:29;;;;;;;13.20;11.80;;;17.20;99.90;;;;;;5056405;28;20450;-78
2021/07/02 05:44:56;;;;;;;12.00;10.80;;;17.30;99.90;;;;;;5056479;28;20512;-77
2021/07/02 05:47:23;;;;;;;13.80;12.40;;;17.20;99.90;;;;;;5057233;28;20900;-77
2021/07/02 05:49:50;;;;;;;14.30;12.37;;;17.30;99.90;;;;;;5056611;28;20444;-77
2021/07/02 05:52:16;;;;;;;16.30;12.53;;;17.40;99.90;;;;;;5056513;28;20453;-78
2021/07/02 05:54:47;;;;;;;13.50;11.40;;;17.40;99.90;;;;;;5059372;28;20445;-77
2021/07/02 05:57:15;;;;;;;15.50;12.60;;;17.30;99.90;;;;;;5060096;28;20573;-77
2021/07/02 05:59:42;;;;;;;14.40;12.90;;;17.30;99.90;;;;;;5060513;28;20445;-78
2021/07/02 06:02:08;;;;;;;26.57;12.07;;;17.30;99.90;;;;;;5059117;28;20480;-77
2021/07/02 06:04:35;;;;;;;12.43;11.13;;;17.30;99.90;;;;;;5059737;28;20507;-78
2021/07/02 06:07:01;;;;;;;16.27;12.63;;;17.20;99.90;;;;;;5058749;28;20461;-77
2021/07/02 06:09:29;;;;;;;12.37;10.97;;;17.40;99.90;;;;;;5060965;28;21029;-77
2021/07/02 06:11:55;;;;;;;15.20;12.10;;;17.40;99.90;;;;;;5059954;28;21048;-77
2021/07/02 06:14:28;;;;;;;18.50;12.43;;;17.50;99.90;;;;;;5059279;28;20446;-77
2021/07/02 06:16:55;;;;;;;16.30;11.90;;;17.60;99.90;;;;;;5061842;28;20891;-77
2021/07/02 06:19:21;;;;;;;15.63;12.17;;;17.40;99.90;;;;;;5059184;28;20449;-78
2021/07/02 06:21:48;;;;;;;17.93;12.97;;;17.40;99.90;;;;;;5059842;28;21064;-77
2021/07/02 06:24:15;;;;;;;15.93;11.23;;;17.40;99.90;;;;;;5061303;28;20430;-77
2021/07/02 06:26:41;;;;;;;12.63;10.90;;;17.50;99.90;;;;;;5057315;28;20527;-77
2021/07/02 06:29:08;;;;;;;16.40;11.33;;;17.50;99.90;;;;;;5056438;28;20495;-77
2021/07/02 06:31:36;;;;;;;17.37;11.90;;;17.60;99.90;;;;;;5056883;28;20446;-78
2021/07/02 06:34:03;;;;;;;11.93;10.37;;;17.60;99.90;;;;;;5057583;28;20474;-78
2021/07/02 06:36:30;;;;;;;15.83;12.50;;;17.50;99.90;;;;;;5057945;28;20481;-77
2021/07/02 06:38:56;;;;;;;14.23;11.90;;;17.70;99.90;;;;;;5057247;28;20481;-78
2021/07/02 06:41:23;;;;;;;21.90;17.00;;;17.80;99.90;;;;;;5057113;28;20458;-77
2021/07/02 06:43:49;;;;;;;14.90;12.87;;;17.80;99.90;;;;;;5061872;28;20445;-77
2021/07/02 06:46:16;;;;;;;15.47;12.53;;;18.00;99.90;;;;;;5061536;28;20517;-77
2021/07/02 06:48:44;;;;;;;13.70;11.17;;;17.90;99.90;;;;;;5060440;28;20587;-76
2021/07/02 06:51:10;;;;;;;15.70;11.83;;;17.70;99.90;;;;;;5056906;28;20442;-78
2021/07/02 06:53:37;;;;;;;12.63;8.90;;;17.90;99.90;;;;;;5057257;28;20450;-77
2021/07/02 06:56:04;;;;;;;10.67;9.00;;;17.80;99.90;;;;;;5056891;28;20868;-78
2021/07/02 06:58:31;;;;;;;16.60;12.90;;;17.80;99.90;;;;;;5057272;28;20939;-78
2021/07/02 07:00:59;;;;;;;23.00;12.03;;;18.00;99.90;;;;;;5056999;28;20449;-79
2021/07/02 07:03:26;;;;;;;12.93;10.37;;;17.90;99.90;;;;;;5056926;28;20892;-79
2021/07/02 07:05:54;;;;;;;10.10;8.53;;;18.10;99.90;;;;;;5056778;28;20867;-79
2021/07/02 07:08:20;;;;;;;14.07;9.83;;;17.80;99.90;;;;;;5056514;28;20465;-78
2021/07/02 07:10:47;;;;;;;12.37;8.23;;;18.00;99.90;;;;;;5056820;28;20488;-78
2021/07/02 07:13:13;;;;;;;14.53;10.03;;;18.10;99.90;;;;;;5056768;28;20648;-79
2021/07/02 07:15:40;;;;;;;10.37;9.27;;;18.20;99.90;;;;;;5057185;28;20853;-78
2021/07/02 07:18:07;;;;;;;10.10;8.97;;;18.30;99.90;;;;;;5056600;28;20516;-77
2021/07/02 07:20:33;;;;;;;13.30;9.10;;;18.40;99.90;;;;;;5055265;28;20840;-76
2021/07/02 07:23:02;;;;;;;10.70;9.20;;;18.30;99.90;;;;;;5055735;28;20455;-78
2021/07/02 07:25:29;;;;;;;11.63;8.67;;;18.30;99.90;;;;;;5056385;28;20480;-78
2021/07/02 07:27:56;;;;;;;10.03;8.60;;;18.40;99.90;;;;;;5055272;28;20914;-77
2021/07/02 07:30:22;;;;;;;10.23;9.23;;;18.40;99.90;;;;;;5055189;28;20450;-77
2021/07/02 07:32:52;;;;;;;9.90;8.50;;;18.40;99.90;;;;;;5055440;28;20807;-77
2021/07/02 07:35:26;;;;;;;12.37;9.70;;;18.40;99.90;;;;;;5055344;28;20441;-78
2021/07/02 07:37:55;;;;;;;9.33;8.43;;;18.60;99.90;;;;;;5054998;28;20520;-77
2021/07/02 07:40:25;;;;;;;9.80;8.00;;;18.70;99.90;;;;;;5059467;28;20500;-77
2021/07/02 07:42:51;;;;;;;10.67;8.03;;;18.80;99.90;;;;;;5060045;28;20412;-77
2021/07/02 07:45:18;;;;;;;10.07;8.33;;;18.90;99.90;;;;;;5062502;28;20481;-77
2021/07/02 07:47:45;;;;;;;9.20;6.93;;;19.00;99.90;;;;;;5065648;28;20496;-77
2021/07/02 07:50:14;;;;;;;11.10;7.53;;;19.10;99.90;;;;;;5061448;28;20512;-77
2021/07/02 07:52:46;;;;;;;10.13;8.30;;;19.10;99.90;;;;;;5057023;28;20446;-77
2021/07/02 07:55:13;;;;;;;7.23;6.30;;;19.10;99.90;;;;;;5055495;28;20437;-77
2021/07/02 07:57:41;;;;;;;9.13;6.90;;;19.00;99.90;;;;;;5054692;28;20900;-77
2021/07/02 08:00:09;;;;;;;7.60;6.80;;;19.20;99.90;;;;;;5057593;28;20458;-77
2021/07/02 08:02:36;;;;;;;6.77;6.17;;;19.20;99.90;;;;;;5058319;28;20505;-77
2021/07/02 08:05:03;;;;;;;8.20;6.50;;;19.40;99.90;;;;;;5056813;28;20488;-78
2021/07/02 08:07:36;;;;;;;9.03;6.43;;;19.40;99.90;;;;;;5057586;28;20873;-78
2021/07/02 08:10:02;;;;;;;7.83;6.37;;;19.40;99.90;;;;;;5058229;28;20432;-77
2021/07/02 08:12:29;;;;;;;8.37;6.80;;;19.30;99.90;;;;;;5061656;28;20934;-76
2021/07/02 08:14:57;;;;;;;8.47;5.50;;;19.40;99.90;;;;;;5063532;28;20443;-78
2021/07/02 08:17:28;;;;;;;6.60;6.00;;;19.50;99.90;;;;;;5058070;28;20988;-78
2021/07/02 08:19:55;;;;;;;6.73;5.73;;;19.70;99.90;;;;;;5056393;28;20539;-78
2021/07/02 08:22:21;;;;;;;7.63;6.20;;;19.70;99.90;;;;;;5056350;28;20487;-78
2021/07/02 08:24:48;;;;;;;7.50;5.63;;;19.90;99.90;;;;;;5056354;28;20443;-78
2021/07/02 08:27:14;;;;;;;7.63;6.10;;;19.80;99.90;;;;;;5057536;28;20463;-77
2021/07/02 08:29:40;;;;;;;9.73;7.00;;;19.80;99.90;;;;;;5057175;28;20453;-78
2021/07/02 08:32:08;;;;;;;6.97;6.33;;;19.70;99.90;;;;;;5055619;28;20466;-77
2021/07/02 08:34:35;;;;;;;7.20;6.50;;;19.50;99.90;;;;;;5056171;28;20230;-77
2021/07/02 08:37:02;;;;;;;10.33;7.20;;;19.50;99.90;;;;;;5057253;28;20534;-77
2021/07/02 08:39:29;;;;;;;8.60;6.87;;;19.50;99.90;;;;;;5054153;28;20939;-78
2021/07/02 08:41:55;;;;;;;6.90;5.70;;;19.70;99.90;;;;;;5057485;28;20474;-77
2021/07/02 08:44:22;;;;;;;8.10;6.97;;;19.80;99.90;;;;;;5057083;28;20454;-78
2021/07/02 08:46:50;;;;;;;7.13;6.43;;;20.00;99.90;;;;;;5055873;28;20610;-79
2021/07/02 08:49:19;;;;;;;6.83;6.23;;;20.10;99.90;;;;;;5056624;28;20448;-77
2021/07/02 08:51:45;;;;;;;11.17;6.17;;;20.10;99.90;;;;;;5055634;28;20460;-78
2021/07/02 08:54:14;;;;;;;9.40;7.07;;;20.10;99.90;;;;;;5055526;28;20453;-78
2021/07/02 08:56:55;;;;;;;10.37;6.60;;;20.30;99.90;;;;;;5096358;22;20559;-77
2021/07/02 08:59:22;;;;;;;7.57;6.87;;;20.10;99.90;;;;;;5035816;28;20557;-78
2021/07/02 09:01:49;;;;;;;9.90;7.13;;;20.10;99.90;;;;;;5040218;28;20438;-80
2021/07/02 09:04:19;;;;;;;7.70;7.00;;;19.90;99.90;;;;;;5047850;28;20449;-79
2021/07/02 09:06:59;;;;;;;11.10;7.70;;;19.90;99.90;;;;;;5047720;28;20488;-79
2021/07/02 09:09:45;;;;;;;8.07;6.43;;;19.90;99.90;;;;;;5048084;28;20442;-80
2021/07/02 09:12:12;;;;;;;9.20;6.10;;;20.00;99.90;;;;;;5047060;28;20446;-79
2021/07/02 09:14:39;;;;;;;7.50;6.23;;;20.10;99.90;;;;;;5052039;28;20453;-80
2021/07/02 09:17:09;;;;;;;6.43;5.83;;;20.20;99.90;;;;;;5053566;28;20468;-83
2021/07/02 09:19:37;;;;;;;7.00;6.10;;;20.10;99.90;;;;;;5053996;28;20458;-80
2021/07/02 09:22:15;;;;;;;6.37;5.77;;;20.10;99.90;;;;;;5053589;28;20445;-82
2021/07/02 09:24:43;;;;;;;8.20;7.17;;;20.30;99.90;;;;;;5052945;28;20939;-82
2021/07/02 09:27:24;;;;;;;9.90;6.90;;;20.40;99.90;;;;;;5054510;28;20504;-82
2021/07/02 09:30:06;;;;;;;8.37;7.33;;;20.50;99.90;;;;;;5056585;28;20910;-82
2021/07/02 09:32:33;;;;;;;12.63;7.37;;;20.60;99.90;;;;;;5057447;28;20513;-82
2021/07/02 09:35:01;;;;;;;9.37;8.40;;;20.80;99.90;;;;;;5055969;28;20472;-82
2021/07/02 09:37:30;;;;;;;5.90;5.40;;;20.90;99.90;;;;;;5046376;28;20469;-83
2021/07/02 09:39:57;;;;;;;9.63;6.43;;;21.00;99.90;;;;;;5043214;28;20458;-83
2021/07/02 09:42:28;;;;;;;7.47;6.57;;;21.10;99.90;;;;;;5042986;28;20479;-82
2021/07/02 09:45:07;;;;;;;7.33;5.80;;;21.20;99.90;;;;;;5048266;28;20464;-82
2021/07/02 09:47:35;;;;;;;7.50;6.10;;;21.20;99.90;;;;;;5047874;28;20973;-82
2021/07/02 09:50:32;;;;;;;7.10;6.40;;;21.20;99.90;;;;;;5047799;28;20453;-82
2021/07/02 09:53:01;;;;;;;10.03;6.77;;;21.10;99.90;;;;;;5048219;28;20446;-82
2021/07/02 09:55:29;;;;;;;7.20;6.37;;;21.10;99.90;;;;;;5046783;28;20466;-83
2021/07/02 09:58:08;;;;;;;7.03;5.93;;;21.10;99.90;;;;;;5047601;28;20470;-82
2021/07/02 10:00:39;;;;;;;7.90;7.20;;;21.20;99.90;;;;;;5048840;28;20431;-83
2021/07/02 10:03:07;;;;;;;7.23;6.53;;;21.20;99.90;;;;;;5049259;28;20510;-83
2021/07/02 10:05:46;;;;;;;6.93;6.33;;;21.20;99.90;;;;;;5047666;28;20916;-83
2021/07/02 10:08:13;;;;;;;17.33;6.80;;;21.10;99.90;;;;;;5047352;28;20470;-83
2021/07/02 10:10:41;;;;;;;7.90;6.47;;;21.00;99.90;;;;;;5047366;28;20473;-83
2021/07/02 10:13:07;;;;;;;8.50;7.10;;;21.00;99.90;;;;;;5045277;28;20505;-82
2021/07/02 10:15:35;;;;;;;6.83;6.23;;;21.10;99.90;;;;;;5048013;28;20446;-83
2021/07/02 10:18:02;;;;;;;10.47;7.27;;;21.20;99.90;;;;;;5046856;28;20462;-82
2021/07/02 10:20:32;;;;;;;7.07;6.03;;;21.30;99.90;;;;;;5046788;28;20443;-83
2021/07/02 10:23:02;;;;;;;20.93;15.00;;;21.30;99.90;;;;;;5045961;28;20450;-83
2021/07/02 10:25:31;;;;;;;11.97;8.97;;;21.30;99.90;;;;;;5046225;28;20501;-83
2021/07/02 10:27:59;;;;;;;7.90;7.13;;;21.30;99.90;;;;;;5047182;28;20496;-83
2021/07/02 10:30:26;;;;;;;7.90;5.80;;;21.30;99.90;;;;;;5048366;28;20446;-83
2021/07/02 10:32:57;;;;;;;6.10;5.50;;;21.20;99.90;;;;;;5048308;28;20496;-83
2021/07/02 10:35:24;;;;;;;8.23;7.13;;;21.30;99.90;;;;;;5048109;28;20443;-83
2021/07/02 10:37:54;;;;;;;6.90;6.30;;;21.50;99.90;;;;;;5047731;28;20465;-83
2021/07/02 10:40:33;;;;;;;8.20;7.13;;;21.50;99.90;;;;;;5049947;28;20509;-82
2021/07/02 10:43:07;;;;;;;7.93;7.10;;;21.50;99.90;;;;;;5054393;28;20445;-83
2021/07/02 10:45:33;;;;;;;7.87;6.57;;;21.40;99.90;;;;;;5052262;28;20458;-83
2021/07/02 10:48:00;;;;;;;8.27;6.30;;;21.40;99.90;;;;;;5047026;28;20466;-83
2021/07/02 10:50:41;;;;;;;8.20;7.10;;;21.40;99.90;;;;;;5046773;28;20461;-83
2021/07/02 10:53:32;;;;;;;7.63;6.53;;;21.40;99.90;;;;;;5052314;28;20898;-82
2021/07/02 10:56:29;;;;;;;7.83;7.10;;;21.30;99.90;;;;;;5044862;28;20500;-83
2021/07/02 10:58:57;;;;;;;7.57;6.50;;;21.30;99.90;;;;;;5047034;28;20508;-84
2021/07/02 11:01:24;;;;;;;8.03;6.30;;;21.40;99.90;;;;;;5046340;28;20482;-83
2021/07/02 11:03:51;;;;;;;7.27;6.07;;;21.70;99.90;;;;;;5047053;28;20505;-83
2021/07/02 11:06:39;;;;;;;6.93;6.23;;;21.80;99.90;;;;;;5047902;28;20517;-83
2021/07/02 11:09:08;;;;;;;6.90;6.20;;;21.80;99.90;;;;;;5048475;28;20459;-83
2021/07/02 11:12:08;;;;;;;8.03;5.90;;;21.80;99.90;;;;;;5047959;28;20921;-83
2021/07/02 11:15:15;;;;;;;6.33;5.73;;;21.70;99.90;;;;;;5048631;28;20454;-83
2021/07/02 11:17:45;;;;;;;6.97;5.80;;;21.90;99.90;;;;;;5047467;28;20459;-84
2021/07/02 11:20:30;;;;;;;7.00;5.57;;;22.10;99.90;;;;;;5053082;28;20457;-82
2021/07/02 11:23:24;;;;;;;7.43;5.33;;;22.20;99.90;;;;;;5056128;28;20439;-82
2021/07/02 11:25:55;;;;;;;6.03;5.53;;;22.20;99.90;;;;;;5038267;28;20477;-83
2021/07/02 11:28:52;;;;;;;5.90;5.30;;;22.50;99.90;;;;;;5048032;28;20505;-83
2021/07/02 11:31:35;;;;;;;7.00;5.60;;;22.50;99.90;;;;;;5047269;28;20446;-82
2021/07/02 11:34:11;;;;;;;6.73;5.10;;;22.40;99.90;;;;;;5046653;28;20858;-82
2021/07/02 11:36:37;;;;;;;6.60;5.87;;;22.60;99.90;;;;;;5046804;28;20415;-82
2021/07/02 11:39:04;;;;;;;6.53;5.80;;;22.90;99.90;;;;;;5048040;28;20456;-82
2021/07/02 11:41:33;;;;;;;5.43;4.93;;;22.70;99.90;;;;;;5049645;28;20442;-82
2021/07/02 11:44:02;;;;;;;6.13;5.03;;;22.80;99.90;;;;;;5055277;28;20488;-82
2021/07/02 11:46:31;;;;;;;6.87;5.23;;;22.70;99.90;;;;;;5048602;28;20486;-82
2021/07/02 11:48:59;;;;;;;5.70;5.10;;;22.80;99.90;;;;;;5048362;28;20446;-82
2021/07/02 11:51:28;;;;;;;5.53;4.90;;;22.90;99.90;;;;;;5048345;28;20446;-83
2021/07/02 11:53:56;;;;;;;6.53;5.50;;;22.90;99.90;;;;;;5046444;28;20485;-83
2021/07/02 11:56:24;;;;;;;6.13;5.17;;;22.90;99.90;;;;;;5049036;28;20838;-83
2021/07/02 11:58:52;;;;;;;6.13;5.63;;;23.10;99.90;;;;;;5051445;28;20489;-83
2021/07/02 12:01:21;;;;;;;9.13;5.30;;;23.60;99.90;;;;;;5047003;28;20446;-83
2021/07/02 12:03:50;;;;;;;10.87;7.10;;;23.20;99.90;;;;;;5045718;28;20435;-83
2021/07/02 12:06:25;;;;;;;6.40;5.80;;;23.30;99.90;;;;;;5045021;28;20474;-82
2021/07/02 12:08:53;;;;;;;6.60;6.00;;;23.10;99.90;;;;;;5045685;28;20426;-83
2021/07/02 12:11:35;;;;;;;6.87;6.17;;;23.10;99.90;;;;;;5045641;28;20477;-83
2021/07/02 12:14:04;;;;;;;7.20;6.50;;;22.80;99.90;;;;;;5044481;28;20489;-82
2021/07/02 12:16:34;;;;;;;6.37;5.67;;;22.80;99.90;;;;;;5045673;28;20443;-83
2021/07/02 12:19:02;;;;;;;7.67;6.90;;;22.70;99.90;;;;;;5045562;28;20458;-83
2021/07/02 12:21:30;;;;;;;9.30;5.90;;;22.70;99.90;;;;;;5044986;28;20500;-82
2021/07/02 12:23:59;;;;;;;7.73;6.60;;;22.70;99.90;;;;;;5045494;28;20443;-82
2021/07/02 12:26:29;;;;;;;7.10;6.40;;;22.70;99.90;;;;;;5044127;28;20482;-83
2021/07/02 12:28:59;;;;;;;6.43;5.83;;;22.90;99.90;;;;;;5044755;28;20442;-82
2021/07/02 12:31:26;;;;;;;8.07;6.70;;;22.90;99.90;;;;;;5045834;28;20521;-83
2021/07/02 12:33:54;;;;;;;8.40;6.20;;;22.90;99.90;;;;;;5045400;28;20451;-83
2021/07/02 12:36:22;;;;;;;6.63;6.03;;;23.10;99.90;;;;;;5049816;28;20439;-83
2021/07/02 12:39:11;;;;;;;8.57;6.03;;;23.10;99.90;;;;;;5057086;28;20434;-82
2021/07/02 12:41:41;;;;;;;7.53;6.60;;;23.30;99.90;;;;;;5046641;28;20840;-83
2021/07/02 12:44:08;;;;;;;6.10;5.60;;;23.10;99.90;;;;;;5046492;28;20447;-84
2021/07/02 12:46:36;;;;;;;6.53;6.03;;;23.20;99.90;;;;;;5044119;28;20478;-83